Pagina principală
METAR-TAF:

METAR-TAF

Aeroporturi :

Brewster Field

Holdrege, Nebraska, Statele Unite ale Americii

Latitudine: 40-27N, longitudine: 099-20W, elevație: 704 m

Observații meteo curente

Raportul a fost făcut în urmă cu 23 de minute, la 00:35 UTC
Vânt 3 kt de la Sud-est
Temperatură 27°C
Umiditate 62%
Presiune 1019 hPa
Vizibilitate: 16.1 km
Cer senin

METAR: KHDE 240035Z AUTO 13003KT 10SM CLR 27/19 A3009 RMK AO2 T02690193

Ora: 19:58 (00:58 UTC)


TAF: lipsă

Observații și prognoze meteo pentru peste 4.000 de aeroporturi (rapoarte METAR și TAF).

Stațiile disponibile sunt reprezentate pe hartă prin puncte galbene și roșii.

Țineți indicatorul mouse-ului pe punctul dorit pentru a vedea denumirea stației.

Apoi, faceți clic pentru a vedea observațiile și prognozele meteorologice.

Pentru a schimba harta: Pentru mărire, faceți clic pe butoanele verzi cu cruce neagră; pentru micșorare, pe butonul verde cu o liniuță; pentru hărți învecinate, pe săgețile verzi.


METAR-TAF: